Time;durP1;ratioP1;P1;durP2;ratioP2;P2;SDS_P1;SDS_P2;PMS_P1;PMS_P2;Temp;Humidity;BMP_temperature;BMP_pressure;BME280_temperature;BME280_humidity;BME280_pressure;Samples;Min_cycle;Max_cycle;Signal;HPM_P1;HPM_P2
2021/06/18 00:00:49;;;;;;;8.75;4.20;;;;;;;31.93;32.68;96384.69;4943786;28;20029;-31
2021/06/18 00:03:14;;;;;;;9.35;4.15;;;;;;;31.92;33.07;96388.28;4936431;28;20411;-37
2021/06/18 00:05:39;;;;;;;10.07;4.30;;;;;;;31.91;32.43;96389.25;4936449;28;21447;-31
2021/06/18 00:08:05;;;;;;;8.32;4.43;;;;;;;31.91;32.99;96386.63;4934191;28;20030;-33
2021/06/18 00:10:31;;;;;;;7.90;4.00;;;;;;;31.90;33.07;96396.41;4929495;28;20084;-29
2021/06/18 00:12:56;;;;;;;6.35;4.15;;;;;;;31.89;32.81;96391.22;4945852;28;20029;-34
2021/06/18 00:15:21;;;;;;;9.02;4.30;;;;;;;31.85;32.51;96376.50;4951698;28;20034;-33
2021/06/18 00:17:47;;;;;;;9.77;3.90;;;;;;;31.86;32.92;96392.28;4933505;28;20482;-32
2021/06/18 00:20:18;;;;;;;7.93;4.00;;;;;;;31.86;32.64;96394.09;4938182;28;20858;-34
2021/06/18 00:22:45;;;;;;;8.63;4.32;;;;;;;31.84;32.46;96386.25;4947200;28;20700;-33
2021/06/18 00:25:11;;;;;;;9.25;4.40;;;;;;;31.83;32.33;96379.28;4951425;28;20125;-32
2021/06/18 00:27:37;;;;;;;6.78;4.45;;;;;;;31.80;32.57;96385.69;4938013;28;20086;-33
2021/06/18 00:30:04;;;;;;;6.28;4.38;;;;;;;31.80;32.79;96388.34;4957249;28;20456;-30
2021/06/18 00:32:29;;;;;;;11.50;4.55;;;;;;;31.78;32.37;96377.03;4938469;28;20042;-30
2021/06/18 00:34:54;;;;;;;7.85;4.10;;;;;;;31.77;32.76;96379.81;4958311;28;20612;-32
2021/06/18 00:37:20;;;;;;;10.73;4.18;;;;;;;31.74;32.63;96372.94;4939120;28;20031;-35
2021/06/18 00:39:46;;;;;;;12.70;4.28;;;;;;;31.74;32.67;96388.84;4942317;28;20034;-32
2021/06/18 00:42:11;;;;;;;11.30;4.30;;;;;;;31.72;32.59;96388.16;4946760;28;20034;-33
2021/06/18 00:44:36;;;;;;;7.55;3.88;;;;;;;31.70;32.70;96379.50;4946547;28;20509;-33
2021/06/18 00:47:03;;;;;;;7.38;4.10;;;;;;;31.69;32.50;96380.44;4944611;28;20031;-30
2021/06/18 00:49:28;;;;;;;10.00;4.05;;;;;;;31.68;32.20;96381.44;4933740;28;20609;-33
2021/06/18 00:51:53;;;;;;;8.43;4.13;;;;;;;31.65;32.20;96381.69;4936579;28;20031;-31
2021/06/18 00:54:28;;;;;;;9.68;4.53;;;;;;;31.64;32.24;96385.31;4948281;28;20081;-31
2021/06/18 00:56:57;;;;;;;8.85;4.00;;;;;;;31.62;32.27;96382.78;4952902;28;20173;-31
2021/06/18 00:59:23;;;;;;;8.90;4.28;;;;;;;31.61;32.54;96385.56;4940917;28;20026;-35
2021/06/18 01:01:48;;;;;;;6.53;4.20;;;;;;;31.60;32.59;96386.53;4943560;28;20478;-30
2021/06/18 01:04:14;;;;;;;10.82;4.18;;;;;;;31.56;32.31;96391.25;4941657;28;20035;-33
2021/06/18 01:06:39;;;;;;;7.20;4.07;;;;;;;31.52;32.28;96388.03;4939571;28;20030;-29
2021/06/18 01:09:06;;;;;;;8.30;4.28;;;;;;;31.53;32.93;96400.28;4931558;28;20035;-32
2021/06/18 01:11:36;;;;;;;7.97;4.10;;;;;;;31.51;32.32;96402.22;4948926;28;20038;-35
2021/06/18 01:14:01;;;;;;;7.63;4.20;;;;;;;31.50;32.83;96403.19;4936970;28;20065;-33
2021/06/18 01:16:36;;;;;;;11.27;4.55;;;;;;;31.49;32.80;96406.81;4929722;28;20034;-34
2021/06/18 01:19:20;;;;;;;10.73;4.40;;;;;;;31.48;32.47;96402.50;4930274;28;20023;-38
2021/06/18 01:21:46;;;;;;;10.38;4.30;;;;;;;31.47;32.55;96400.78;4933143;28;20030;-32
2021/06/18 01:24:22;;;;;;;14.77;4.40;;;;;;;31.46;32.70;96398.28;4948015;28;20987;-32
2021/06/18 01:27:04;;;;;;;14.95;3.90;;;;;;;31.43;32.37;96399.34;4947237;28;20031;-37
2021/06/18 01:29:49;;;;;;;8.30;4.40;;;;;;;31.42;32.07;96397.69;4955013;28;20054;-31
2021/06/18 01:32:21;;;;;;;13.57;4.53;;;;;;;31.41;31.94;96398.66;4933718;28;20035;-35
2021/06/18 01:34:46;;;;;;;;;;;;;;;31.40;32.69;96399.63;4950663;28;20019;-34
2021/06/18 01:37:14;;;;;;;10.57;4.40;;;;;;;31.37;32.54;96394.59;4936659;28;19933;-37
2021/06/18 01:39:39;;;;;;;11.50;4.43;;;;;;;31.34;32.66;96392.19;4954925;28;20061;-35
2021/06/18 01:42:06;;;;;;;9.63;4.20;;;;;;;31.33;32.66;96393.16;4930894;28;20461;-32
2021/06/18 01:44:31;;;;;;;10.80;4.60;;;;;;;31.32;32.11;96402.06;4933668;28;20054;-34
2021/06/18 01:47:00;;;;;;;7.30;4.03;;;;;;;31.29;32.71;96398.66;4926414;28;21392;-34
2021/06/18 01:49:25;;;;;;;10.43;4.63;;;;;;;31.28;32.58;96389.03;4951951;28;20038;-33
2021/06/18 01:51:51;;;;;;;7.53;4.32;;;;;;;31.27;32.27;96389.16;4943324;28;20069;-29
2021/06/18 01:54:16;;;;;;;13.68;4.40;;;;;;;31.26;32.19;96390.16;4935504;28;20038;-33
2021/06/18 01:56:43;;;;;;;10.77;4.50;;;;;;;31.24;32.50;96390.25;4936974;28;20790;-32
2021/06/18 01:59:08;;;;;;;9.52;4.43;;;;;;;31.22;32.30;96381.63;4951965;28;20101;-36
2021/06/18 02:01:36;;;;;;;5.53;4.00;;;;;;;31.20;32.69;96388.84;4926531;28;20521;-32
2021/06/18 02:04:03;;;;;;;8.93;4.22;;;;;;;31.19;32.75;96381.03;4935214;28;20030;-36
2021/06/18 02:06:29;;;;;;;5.82;3.92;;;;;;;31.19;32.55;96386.34;4939646;28;20477;-35
2021/06/18 02:08:56;;;;;;;7.85;4.50;;;;;;;31.17;32.66;96375.88;4932186;28;20033;-31
2021/06/18 02:11:24;;;;;;;8.02;4.63;;;;;;;31.15;33.06;96373.34;4946009;28;20035;-33
2021/06/18 02:13:50;;;;;;;6.53;4.20;;;;;;;31.14;32.97;96368.19;4914557;28;21119;-34
2021/06/18 02:16:15;;;;;;;11.13;4.13;;;;;;;31.13;32.88;96377.09;4924902;28;20041;-33
2021/06/18 02:18:41;;;;;;;7.70;4.07;;;;;;;31.11;32.37;96368.41;4953226;28;21117;-34
2021/06/18 02:21:06;;;;;;;5.47;3.85;;;;;;;31.09;32.93;96359.78;4935562;28;20042;-31
2021/06/18 02:23:33;;;;;;;5.95;4.03;;;;;;;31.06;32.81;96360.88;4940124;28;20038;-30
2021/06/18 02:25:59;;;;;;;8.02;4.38;;;;;;;31.06;32.85;96360.03;4953010;28;20475;-39
2021/06/18 02:28:24;;;;;;;6.78;4.10;;;;;;;31.05;32.56;96353.06;4970283;28;20134;-33
2021/06/18 02:30:50;;;;;;;9.02;4.20;;;;;;;31.02;32.86;96352.31;4930843;28;20124;-39
2021/06/18 02:33:15;;;;;;;6.60;4.57;;;;;;;31.03;32.82;96355.81;4950646;28;20602;-34
2021/06/18 02:35:41;;;;;;;10.73;4.55;;;;;;;31.01;33.00;96357.78;4968757;28;20034;-32
2021/06/18 02:38:07;;;;;;;6.70;4.47;;;;;;;31.02;33.03;96376.13;4934953;28;20029;-32
2021/06/18 02:40:33;;;;;;;10.13;4.10;;;;;;;31.00;32.88;96378.09;4937892;28;20736;-30
2021/06/18 02:42:58;;;;;;;8.95;4.20;;;;;;;31.00;32.67;96393.97;4935805;28;20043;-30
2021/06/18 02:45:24;;;;;;;8.48;4.45;;;;;;;30.99;32.91;96392.28;4936639;28;20088;-35
2021/06/18 02:48:00;;;;;;;7.72;4.03;;;;;;;30.98;32.63;96413.56;4939404;28;20866;-30
2021/06/18 02:50:43;;;;;;;10.57;4.07;;;;;;;30.96;32.31;96411.06;4943591;28;20153;-34
2021/06/18 02:53:26;;;;;;;9.23;4.18;;;;;;;30.92;32.64;96396.38;4939740;28;20026;-35
2021/06/18 02:55:54;;;;;;;10.43;4.28;;;;;;;30.87;32.60;96399.41;4939333;28;20081;-34
2021/06/18 02:58:24;;;;;;;10.32;4.65;;;;;;;30.81;32.91;96405.19;4940448;28;20054;-36
2021/06/18 03:00:50;;;;;;;10.40;4.60;;;;;;;30.76;32.79;96418.78;4939314;28;20192;-33
2021/06/18 03:03:29;;;;;;;8.77;4.70;;;;;;;30.73;32.86;96419.03;4983151;28;20045;-33
2021/06/18 03:05:54;;;;;;;7.22;4.13;;;;;;;30.69;33.13;96412.28;4948571;28;20591;-32
2021/06/18 03:08:21;;;;;;;9.57;4.65;;;;;;;30.66;33.45;96412.50;4932000;28;20027;-36
2021/06/18 03:10:48;;;;;;;10.65;4.80;;;;;;;30.63;33.55;96412.78;4942934;28;20570;-36
2021/06/18 03:13:16;;;;;;;10.57;5.15;;;;;;;30.58;33.58;96410.47;4943765;28;20038;-33
2021/06/18 03:15:45;;;;;;;9.23;4.72;;;;;;;30.55;33.02;96415.19;4942323;28;20125;-32
2021/06/18 03:18:11;;;;;;;8.15;4.70;;;;;;;30.51;33.46;96409.28;4938558;28;22250;-34
2021/06/18 03:20:37;;;;;;;10.02;4.78;;;;;;;30.48;33.94;96412.19;4928795;28;20038;-37
2021/06/18 03:23:05;;;;;;;8.23;4.40;;;;;;;30.45;33.86;96420.34;4931896;28;20118;-33
2021/06/18 03:25:32;;;;;;;6.90;4.82;;;;;;;30.43;33.75;96427.56;4969768;28;20046;-36
2021/06/18 03:27:57;;;;;;;9.48;4.55;;;;;;;30.40;33.53;96427.81;4932282;28;20034;-31
2021/06/18 03:30:23;;;;;;;11.05;4.80;;;;;;;30.40;33.81;96425.97;4946249;28;20143;-31
2021/06/18 03:32:49;;;;;;;6.97;4.47;;;;;;;30.37;33.40;96435.00;4943206;28;20082;-34
2021/06/18 03:35:15;;;;;;;10.52;4.60;;;;;;;30.35;33.43;96425.50;4961346;28;20062;-29
2021/06/18 03:37:40;;;;;;;11.15;4.50;;;;;;;30.32;33.59;96416.00;4963807;28;20057;-40
2021/06/18 03:40:06;;;;;;;13.23;4.78;;;;;;;30.31;33.87;96413.47;4996144;28;20030;-35
2021/06/18 03:42:32;;;;;;;13.43;5.05;;;;;;;30.27;33.66;96406.75;4946533;28;20035;-29
2021/06/18 03:44:57;;;;;;;10.52;4.80;;;;;;;30.29;33.45;96410.13;4967295;28;20570;-33
2021/06/18 03:47:22;;;;;;;9.73;4.50;;;;;;;30.29;33.71;96420.69;4936256;28;20026;-34
2021/06/18 03:49:48;;;;;;;11.20;4.82;;;;;;;30.26;33.67;96413.84;4946274;28;20035;-33
2021/06/18 03:52:13;;;;;;;8.70;5.20;;;;;;;30.27;33.42;96422.59;4970254;28;20023;-36
2021/06/18 03:54:39;;;;;;;12.13;4.70;;;;;;;30.26;33.34;96427.06;4941895;28;20549;-35
2021/06/18 03:57:04;;;;;;;14.27;5.00;;;;;;;30.25;33.71;96428.03;4945850;28;20046;-33
2021/06/18 03:59:32;;;;;;;10.75;4.65;;;;;;;30.22;33.61;96426.47;4951083;28;20117;-37
2021/06/18 04:01:57;;;;;;;11.65;4.53;;;;;;;30.21;33.62;96430.06;4930430;28;20414;-34
2021/06/18 04:04:23;;;;;;;12.50;4.65;;;;;;;30.19;33.45;96426.72;4930626;28;20042;-31
2021/06/18 04:06:49;;;;;;;8.43;4.80;;;;;;;30.15;33.73;96430.53;4934108;28;20058;-36
2021/06/18 04:09:17;;;;;;;5.72;4.25;;;;;;;30.12;33.78;96423.69;4949176;28;20030;-34
2021/06/18 04:11:45;;;;;;;8.38;4.88;;;;;;;30.11;33.80;96429.06;4941938;28;20859;-34
2021/06/18 04:14:11;;;;;;;9.07;4.55;;;;;;;30.08;33.79;96430.16;4929207;28;20053;-34
2021/06/18 04:16:38;;;;;;;14.45;5.07;;;;;;;30.06;34.18;96431.22;4935945;28;20035;-38
2021/06/18 04:19:03;;;;;;;9.88;4.60;;;;;;;30.04;34.15;96444.53;4946767;28;20085;-33
2021/06/18 04:21:28;;;;;;;7.93;4.53;;;;;;;30.04;34.29;96443.69;4927138;28;20060;-31
2021/06/18 04:23:54;;;;;;;7.72;4.90;;;;;;;30.03;34.04;96445.50;4950083;28;20338;-30
2021/06/18 04:26:20;;;;;;;7.35;5.30;;;;;;;30.04;34.30;96448.97;4944781;28;20078;-34
2021/06/18 04:28:46;;;;;;;10.73;4.85;;;;;;;30.03;33.98;96452.59;4946743;28;20790;-36
2021/06/18 04:31:11;;;;;;;21.60;4.65;;;;;;;30.03;34.33;96458.72;4946343;28;20043;-32
2021/06/18 04:33:37;;;;;;;8.02;4.38;;;;;;;30.04;34.43;96448.97;4940428;28;20074;-36
2021/06/18 04:36:03;;;;;;;10.82;4.68;;;;;;;30.04;34.18;96459.53;4945380;28;20050;-37
2021/06/18 04:38:29;;;;;;;10.98;4.75;;;;;;;30.04;34.26;96463.03;4941325;28;20541;-34
2021/06/18 04:40:54;;;;;;;9.98;4.60;;;;;;;30.04;33.96;96462.19;4935992;28;20034;-35
2021/06/18 04:43:20;;;;;;;13.15;4.97;;;;;;;30.05;34.44;96462.06;4939945;28;20260;-35
2021/06/18 04:45:45;;;;;;;6.90;4.75;;;;;;;30.04;34.37;96460.41;4945405;28;20022;-38
2021/06/18 04:48:10;;;;;;;11.63;4.78;;;;;;;30.04;34.32;96470.13;4943185;28;20026;-33
2021/06/18 04:50:36;;;;;;;10.77;4.88;;;;;;;30.04;34.15;96470.13;4929462;28;20026;-32
2021/06/18 04:53:02;;;;;;;12.05;4.75;;;;;;;30.04;34.33;96465.69;4940934;28;20027;-31
2021/06/18 04:55:27;;;;;;;9.55;5.03;;;;;;;30.05;34.28;96466.53;4970955;28;20098;-33
2021/06/18 04:57:53;;;;;;;11.57;4.40;;;;;;;30.06;34.34;96462.94;4935971;28;20121;-34
2021/06/18 05:00:23;;;;;;;8.00;5.03;;;;;;;30.08;34.43;96474.22;4938669;28;20840;-36
2021/06/18 05:02:48;;;;;;;13.15;5.38;;;;;;;30.09;34.43;96478.56;4939028;28;20763;-36
2021/06/18 05:05:14;;;;;;;9.88;4.60;;;;;;;30.10;34.53;96474.94;4953418;28;20054;-39
2021/06/18 05:07:39;;;;;;;10.60;4.32;;;;;;;30.11;34.39;96466.06;4942216;28;20034;-35
2021/06/18 05:10:05;;;;;;;10.15;5.00;;;;;;;30.13;34.49;96469.44;4943093;28;20045;-34
2021/06/18 05:12:30;;;;;;;10.25;4.78;;;;;;;30.11;34.54;96463.41;4936338;28;20714;-34
2021/06/18 05:14:56;;;;;;;9.48;4.20;;;;;;;30.16;34.49;96469.22;4949612;28;20027;-33
2021/06/18 05:17:21;;;;;;;10.50;4.80;;;;;;;30.17;34.42;96468.25;4924673;28;20361;-34
2021/06/18 05:19:47;;;;;;;11.05;4.57;;;;;;;30.18;34.13;96462.03;4927027;28;20552;-36
2021/06/18 05:22:12;;;;;;;7.40;4.10;;;;;;;30.21;34.46;96467.06;4930963;28;20049;-33
2021/06/18 05:24:37;;;;;;;11.43;4.65;;;;;;;30.22;34.03;96463.47;4946997;28;20035;-30
2021/06/18 05:27:03;;;;;;;9.95;4.57;;;;;;;30.24;34.26;96466.84;4940636;28;20045;-32
2021/06/18 05:29:28;;;;;;;8.95;4.75;;;;;;;30.27;34.19;96470.19;4946608;28;20034;-32
2021/06/18 05:31:54;;;;;;;13.93;4.65;;;;;;;30.28;34.11;96467.44;4944484;28;20035;-32
2021/06/18 05:34:20;;;;;;;8.88;4.57;;;;;;;30.30;34.43;96469.97;4947656;28;21750;-30
2021/06/18 05:36:45;;;;;;;11.30;4.70;;;;;;;30.30;34.77;96459.38;4929549;28;20054;-34
2021/06/18 05:39:14;;;;;;;8.02;4.60;;;;;;;30.31;34.52;96456.63;4938781;28;20035;-33
2021/06/18 05:41:39;;;;;;;11.77;4.50;;;;;;;30.34;34.33;96455.53;4935397;28;20026;-34
2021/06/18 05:44:05;;;;;;;7.93;4.15;;;;;;;30.36;34.24;96461.56;4941545;28;20069;-34
2021/06/18 05:46:31;;;;;;;11.93;4.97;;;;;;;30.37;34.57;96464.06;4947233;28;20035;-32
2021/06/18 05:48:56;;;;;;;8.60;5.10;;;;;;;30.40;34.85;96475.38;4942712;28;20049;-31
2021/06/18 05:51:22;;;;;;;15.18;4.88;;;;;;;30.40;34.70;96470.91;4938828;28;20132;-35
2021/06/18 05:53:50;;;;;;;13.75;5.63;;;;;;;30.41;35.10;96462.06;4944363;28;20099;-34
2021/06/18 05:56:15;;;;;;;9.05;4.80;;;;;;;30.43;34.75;96470.69;4946229;28;20026;-30
2021/06/18 05:58:41;;;;;;;15.10;4.60;;;;;;;30.46;34.59;96466.97;4942363;28;20029;-36
2021/06/18 06:01:06;;;;;;;18.83;5.20;;;;;;;30.48;34.85;96459.78;4942678;28;20069;-31
2021/06/18 06:03:33;;;;;;;13.82;4.63;;;;;;;30.48;35.33;96457.94;4943404;28;20039;-38
2021/06/18 06:05:59;;;;;;;13.35;4.70;;;;;;;30.52;35.39;96464.69;4925401;28;20038;-32
2021/06/18 06:08:25;;;;;;;19.25;5.38;;;;;;;30.52;35.18;96464.69;4933953;28;20034;-31
2021/06/18 06:10:50;;;;;;;12.57;4.80;;;;;;;30.55;35.33;96465.41;4937037;28;20018;-30
2021/06/18 06:13:16;;;;;;;13.90;4.80;;;;;;;30.57;35.04;96471.41;4926360;28;20080;-34
2021/06/18 06:15:42;;;;;;;14.90;5.00;;;;;;;30.58;34.77;96473.09;4939319;28;20108;-31
2021/06/18 06:18:07;;;;;;;9.02;4.25;;;;;;;30.59;34.89;96470.34;4926837;28;20031;-32
2021/06/18 06:20:32;;;;;;;12.52;4.38;;;;;;;30.61;34.89;96467.56;4936356;28;20038;-32
2021/06/18 06:22:58;;;;;;;12.95;4.95;;;;;;;30.62;35.16;96469.25;4936207;28;20469;-33
2021/06/18 06:25:23;;;;;;;14.13;5.07;;;;;;;30.64;34.93;96467.34;4941632;28;20030;-37
2021/06/18 06:27:49;;;;;;;9.25;5.30;;;;;;;30.67;35.25;96469.75;4944369;28;20798;-37
2021/06/18 06:30:14;;;;;;;17.13;5.00;;;;;;;30.68;35.43;96468.78;4943266;28;20638;-36
2021/06/18 06:32:40;;;;;;;13.45;5.25;;;;;;;30.70;34.99;96466.84;4938754;28;20058;-33
2021/06/18 06:35:06;;;;;;;15.02;5.25;;;;;;;30.71;35.26;96468.53;4933186;28;20090;-36
2021/06/18 06:37:31;;;;;;;22.42;5.50;;;;;;;30.72;35.13;96470.25;4931201;28;20062;-37
2021/06/18 06:39:57;;;;;;;19.27;5.45;;;;;;;30.72;35.44;96464.97;4930898;28;20034;-29
2021/06/18 06:42:22;;;;;;;18.00;5.47;;;;;;;30.72;35.39;96464.97;4931193;28;20984;-31
2021/06/18 06:44:47;;;;;;;17.80;4.93;;;;;;;30.70;35.13;96460.72;4940754;28;21159;-29
2021/06/18 06:47:13;;;;;;;17.13;5.13;;;;;;;30.73;35.02;96471.94;4923277;28;20078;-30
2021/06/18 06:49:38;;;;;;;11.55;4.82;;;;;;;30.73;35.21;96479.88;4930503;28;20049;-29
2021/06/18 06:52:04;;;;;;;11.27;4.75;;;;;;;30.73;34.94;96469.28;4936348;28;20035;-31
2021/06/18 06:54:29;;;;;;;14.48;5.60;;;;;;;30.75;35.59;96470.00;4932777;28;20877;-30
2021/06/18 06:56:55;;;;;;;14.98;5.22;;;;;;;30.75;35.10;96475.28;4934897;28;20037;-36
2021/06/18 06:59:24;;;;;;;17.25;4.65;;;;;;;30.79;34.67;96483.00;4937299;28;20034;-35
2021/06/18 07:01:49;;;;;;;16.10;5.07;;;;;;;30.77;35.17;96478.66;4932820;28;20458;-29
2021/06/18 07:04:14;;;;;;;15.05;4.72;;;;;;;30.79;34.82;96477.69;4931520;28;20711;-37
2021/06/18 07:06:40;;;;;;;10.95;5.05;;;;;;;30.79;35.25;96472.41;4933517;28;20034;-32
2021/06/18 07:09:08;;;;;;;12.60;4.30;;;;;;;30.80;35.02;96476.72;4929453;28;20038;-30
2021/06/18 07:11:34;;;;;;;10.60;4.05;;;;;;;30.79;35.11;96475.91;4931592;28;20027;-31
2021/06/18 07:13:59;;;;;;;13.55;4.25;;;;;;;30.82;35.16;96478.28;4928056;28;20043;-29
2021/06/18 07:16:25;;;;;;;13.23;4.45;;;;;;;30.82;35.00;96465.06;4931503;28;20061;-31
2021/06/18 07:18:51;;;;;;;10.13;4.40;;;;;;;30.85;35.02;96469.25;4924006;28;20278;-32
2021/06/18 07:21:16;;;;;;;8.32;4.07;;;;;;;30.87;34.82;96467.34;4930702;28;20033;-30
2021/06/18 07:23:42;;;;;;;7.43;4.10;;;;;;;30.89;34.83;96470.69;4932059;28;20197;-31
2021/06/18 07:26:07;;;;;;;8.60;4.15;;;;;;;30.92;34.73;96474.91;4931996;28;20031;-31
2021/06/18 07:28:32;;;;;;;12.73;3.70;;;;;;;30.93;34.28;96480.06;4927671;28;20415;-29
2021/06/18 07:30:58;;;;;;;11.73;4.15;;;;;;;30.94;34.45;96479.13;4930600;28;20055;-32
2021/06/18 07:33:23;;;;;;;7.72;4.10;;;;;;;30.93;34.75;96477.44;4931503;28;20023;-32
2021/06/18 07:35:49;;;;;;;7.88;3.40;;;;;;;30.97;34.72;96481.53;4933824;28;20027;-33
2021/06/18 07:38:14;;;;;;;10.38;3.97;;;;;;;31.01;34.74;96487.44;4930802;28;20044;-33
2021/06/18 07:40:40;;;;;;;10.02;3.83;;;;;;;31.02;34.26;96487.28;4928483;28;20093;-34
2021/06/18 07:43:05;;;;;;;10.15;4.13;;;;;;;31.03;34.42;96494.28;4933280;28;20023;-31
2021/06/18 07:45:31;;;;;;;9.00;3.92;;;;;;;31.04;34.92;96489.81;4939832;28;20561;-31
2021/06/18 07:47:56;;;;;;;7.25;3.85;;;;;;;31.07;34.49;96486.06;4933767;28;20030;-30
2021/06/18 07:50:22;;;;;;;6.68;3.70;;;;;;;31.07;34.22;96480.78;4932631;28;20987;-35
2021/06/18 07:52:48;;;;;;;7.28;3.40;;;;;;;31.09;34.48;96476.22;4929257;28;20024;-34
2021/06/18 07:55:18;;;;;;;9.02;3.42;;;;;;;31.10;34.61;96475.25;4930716;28;20420;-31
2021/06/18 07:57:44;;;;;;;16.27;3.80;;;;;;;31.11;34.60;96474.28;4928635;28;20050;-31
2021/06/18 08:00:10;;;;;;;8.35;3.35;;;;;;;31.13;34.60;96469.72;4930632;28;20034;-32
2021/06/18 08:02:35;;;;;;;9.80;3.60;;;;;;;31.13;34.22;96473.19;4931476;28;20038;-33
2021/06/18 08:05:00;;;;;;;8.50;3.75;;;;;;;31.15;34.85;96470.41;4938333;28;20659;-32
2021/06/18 08:07:26;;;;;;;7.72;3.33;;;;;;;31.17;34.33;96473.81;4933681;28;20042;-30
2021/06/18 08:09:52;;;;;;;11.77;3.40;;;;;;;31.19;34.06;96460.44;4930217;28;22151;-34
2021/06/18 08:12:18;;;;;;;9.35;3.40;;;;;;;31.19;34.48;96455.97;4935196;28;20234;-30
2021/06/18 08:14:43;;;;;;;5.75;2.90;;;;;;;31.21;34.10;96459.34;4933808;28;20034;-34
2021/06/18 08:17:08;;;;;;;9.55;3.40;;;;;;;31.22;34.19;96455.75;4929221;28;20038;-32
2021/06/18 08:19:34;;;;;;;12.27;3.40;;;;;;;31.19;34.41;96458.63;4934445;28;20096;-39
2021/06/18 08:21:59;;;;;;;4.40;2.85;;;;;;;31.23;34.07;96461.84;4933426;28;20029;-33
2021/06/18 08:24:25;;;;;;;6.53;2.97;;;;;;;31.24;34.74;96463.56;4934260;28;20028;-33
2021/06/18 08:26:50;;;;;;;8.30;3.20;;;;;;;31.26;34.37;96461.63;4961905;28;20033;-30
2021/06/18 08:29:16;;;;;;;5.15;3.08;;;;;;;31.26;34.49;96457.19;4934923;28;20030;-28
2021/06/18 08:31:42;;;;;;;8.45;3.65;;;;;;;31.27;34.91;96458.84;4932799;28;20035;-33
2021/06/18 08:34:09;;;;;;;6.00;2.92;;;;;;;31.28;34.73;96455.22;4936498;28;20030;-30
2021/06/18 08:36:34;;;;;;;10.63;3.30;;;;;;;31.31;34.60;96453.34;4935422;28;20882;-31
2021/06/18 08:39:00;;;;;;;9.25;3.63;;;;;;;31.31;34.95;96448.06;4934484;28;20117;-29
2021/06/18 08:41:25;;;;;;;9.00;3.50;;;;;;;31.33;34.69;96456.69;4931883;28;20097;-30
2021/06/18 08:43:50;;;;;;;5.68;3.38;;;;;;;31.34;34.85;96455.72;4967848;28;20022;-32
2021/06/18 08:46:16;;;;;;;7.00;3.25;;;;;;;31.33;34.79;96454.91;4957419;28;20117;-30
2021/06/18 08:48:41;;;;;;;5.85;3.30;;;;;;;31.35;35.05;96449.47;4964683;28;20105;-32
2021/06/18 08:51:07;;;;;;;11.82;3.35;;;;;;;31.37;34.75;96452.84;4926691;28;20829;-33
2021/06/18 08:53:34;;;;;;;5.60;3.42;;;;;;;31.38;35.00;96454.50;4932828;28;20495;-32
2021/06/18 08:55:59;;;;;;;7.28;3.53;;;;;;;31.38;35.08;96455.34;4935859;28;20026;-35
2021/06/18 08:58:24;;;;;;;9.30;3.60;;;;;;;31.40;35.18;96457.88;4942593;28;20068;-29
2021/06/18 09:00:51;;;;;;;9.48;3.53;;;;;;;31.39;35.03;96451.72;4953996;28;20043;-33
2021/06/18 09:03:43;;;;;;;8.85;4.00;;;;;;;31.39;35.36;96448.28;4943959;28;20034;-33
2021/06/18 09:06:17;;;;;;;6.47;3.35;;;;;;;31.40;35.42;96450.75;4950838;28;20027;-34
2021/06/18 09:08:42;;;;;;;8.15;3.40;;;;;;;31.38;34.74;96447.41;4956413;28;20736;-31
2021/06/18 09:11:08;;;;;;;5.72;3.30;;;;;;;31.42;35.06;96445.34;4945577;28;20137;-36
2021/06/18 09:13:34;;;;;;;9.82;3.35;;;;;;;31.43;35.10;96449.66;4972659;28;20022;-30
2021/06/18 09:16:02;;;;;;;10.25;3.40;;;;;;;31.43;34.64;96447.03;4939193;28;20697;-31
2021/06/18 09:18:31;;;;;;;10.05;3.20;;;;;;;31.44;35.18;96451.38;4945777;28;20443;-32
2021/06/18 09:21:03;;;;;;;5.40;3.20;;;;;;;31.45;35.02;96447.75;4937620;28;20494;-35
2021/06/18 09:23:42;;;;;;;7.20;3.83;;;;;;;31.45;35.48;96452.19;4940776;28;20039;-31
2021/06/18 09:26:35;;;;;;;8.57;3.38;;;;;;;31.46;35.36;96449.44;4941249;28;20049;-32
2021/06/18 09:29:30;;;;;;;5.13;3.22;;;;;;;31.46;35.16;96452.06;4939207;28;20027;-34
2021/06/18 09:32:00;;;;;;;8.00;3.10;;;;;;;31.43;34.98;96447.03;4933637;28;20057;-30
2021/06/18 09:34:40;;;;;;;5.95;2.97;;;;;;;31.47;35.10;96448.44;4968689;28;20563;-34
2021/06/18 09:37:42;;;;;;;5.05;3.30;;;;;;;31.47;35.37;96447.63;4940290;28;20046;-29
2021/06/18 09:40:16;;;;;;;7.78;3.15;;;;;;;31.48;35.50;96439.56;4918314;28;20031;-31
2021/06/18 09:42:52;;;;;;;5.93;3.05;;;;;;;31.49;34.81;96443.88;4937022;28;20068;-36
2021/06/18 09:45:19;;;;;;;5.35;2.75;;;;;;;31.48;35.70;96444.84;4935438;28;20030;-33
2021/06/18 09:47:44;;;;;;;5.25;2.90;;;;;;;31.45;35.90;96439.81;4940263;28;20026;-30
2021/06/18 09:50:13;;;;;;;4.25;2.75;;;;;;;31.45;35.58;96442.44;4940240;28;20487;-39
2021/06/18 09:52:39;;;;;;;5.88;2.63;;;;;;;31.45;35.96;96439.81;4940528;28;20283;-35
2021/06/18 09:55:05;;;;;;;4.28;2.72;;;;;;;31.49;36.08;96441.25;4941001;28;20031;-39
2021/06/18 09:57:43;;;;;;;4.93;2.70;;;;;;;31.60;36.10;96431.56;4943515;28;20050;-32
2021/06/18 10:00:12;;;;;;;4.13;2.58;;;;;;;31.70;35.31;96437.78;4936203;28;20027;-32
2021/06/18 10:02:40;;;;;;;8.10;2.72;;;;;;;31.84;35.57;96433.13;4936000;28;20027;-34
2021/06/18 10:05:12;;;;;;;4.55;2.70;;;;;;;31.97;35.00;96432.97;4935868;28;20501;-35
2021/06/18 10:07:38;;;;;;;6.57;2.63;;;;;;;32.13;35.08;96429.84;4945049;28;20039;-36
2021/06/18 10:10:14;;;;;;;5.47;2.47;;;;;;;32.26;34.50;96426.97;4944220;28;20490;-34
2021/06/18 10:12:40;;;;;;;3.50;2.40;;;;;;;32.42;34.56;96421.19;4950371;28;20056;-38
2021/06/18 10:15:07;;;;;;;5.15;2.38;;;;;;;32.54;34.56;96425.44;4940981;28;20455;-33
2021/06/18 10:17:34;;;;;;;6.35;2.67;;;;;;;32.67;34.13;96419.06;4939133;28;20060;-33
2021/06/18 10:20:00;;;;;;;5.35;2.35;;;;;;;32.76;33.55;96422.75;4940785;28;20473;-38
2021/06/18 10:22:26;;;;;;;5.32;2.63;;;;;;;32.84;34.14;96418.41;4929805;28;20044;-34
2021/06/18 10:25:04;;;;;;;5.82;2.70;;;;;;;32.93;33.48;96418.59;4943716;28;20030;-35
2021/06/18 10:27:32;;;;;;;5.88;2.78;;;;;;;33.00;33.35;96411.78;4939743;28;20903;-31
2021/06/18 10:29:58;;;;;;;3.70;2.50;;;;;;;33.07;33.54;96414.75;4969521;28;20196;-33
2021/06/18 10:32:26;;;;;;;7.07;3.10;;;;;;;33.13;33.62;96422.13;4969664;28;20043;-36
2021/06/18 10:34:51;;;;;;;10.43;2.58;;;;;;;33.19;33.35;96412.78;4939573;28;20038;-33
2021/06/18 10:37:19;;;;;;;5.22;2.50;;;;;;;33.23;33.48;96414.19;4972848;28;20031;-34
2021/06/18 10:40:07;;;;;;;4.68;2.80;;;;;;;33.28;33.17;96411.94;4956750;28;20693;-30
2021/06/18 10:42:33;;;;;;;5.55;2.60;;;;;;;33.34;33.07;96410.56;4946373;28;20429;-31
2021/06/18 10:44:58;;;;;;;4.28;2.60;;;;;;;33.38;33.22;96411.97;4937459;28;20050;-36
2021/06/18 10:47:23;;;;;;;7.45;2.92;;;;;;;33.41;33.77;96410.84;4928143;28;20027;-38
2021/06/18 10:49:52;;;;;;;5.28;2.95;;;;;;;33.45;33.08;96412.25;4924513;28;20031;-34
2021/06/18 10:52:25;;;;;;;9.27;2.95;;;;;;;33.48;33.73;96402.16;4915960;28;20031;-36
2021/06/18 10:54:55;;;;;;;5.57;2.95;;;;;;;33.50;33.92;96396.72;4920297;28;20521;-33
2021/06/18 10:57:24;;;;;;;5.38;2.85;;;;;;;33.52;33.53;96397.41;4924390;28;20035;-36
2021/06/18 10:59:53;;;;;;;6.65;2.70;;;;;;;33.54;33.34;96397.25;4921754;28;20321;-33
2021/06/18 11:02:31;;;;;;;5.53;2.78;;;;;;;33.56;33.81;96400.66;4938065;28;20760;-37
2021/06/18 11:05:07;;;;;;;5.22;2.60;;;;;;;33.58;33.54;96399.53;4939977;28;20883;-35
2021/06/18 11:07:37;;;;;;;6.63;2.50;;;;;;;33.61;33.49;96396.59;4939739;28;20134;-36
2021/06/18 11:10:06;;;;;;;4.30;2.58;;;;;;;33.63;33.39;96404.41;4945814;28;20106;-33
2021/06/18 11:12:31;;;;;;;4.25;2.38;;;;;;;33.63;33.57;96397.28;4939960;28;20035;-34
2021/06/18 11:15:00;;;;;;;3.97;2.50;;;;;;;33.65;32.86;96391.00;4937977;28;20030;-31
2021/06/18 11:17:45;;;;;;;6.93;2.60;;;;;;;33.69;32.86;96397.69;4939989;28;20057;-32
2021/06/18 11:20:24;;;;;;;4.72;2.10;;;;;;;33.62;33.04;96385.00;4929315;28;20041;-33
2021/06/18 11:23:13;;;;;;;4.88;2.42;;;;;;;33.66;32.57;96390.00;4938072;28;20825;-34
2021/06/18 11:25:39;;;;;;;7.25;2.72;;;;;;;33.61;32.91;96385.94;4945614;28;20141;-32
2021/06/18 11:28:19;;;;;;;4.05;2.70;;;;;;;33.58;32.78;96386.25;4936785;28;20129;-32
2021/06/18 11:30:51;;;;;;;4.87;2.40;;;;;;;33.54;33.04;96395.50;4935605;28;20072;-35
2021/06/18 11:36:33;;;;;;;6.03;2.22;;;;;;;33.43;32.67;96391.13;4936699;28;20069;-33